Sweet Valley, Pennsylvania
Current Conditions -  °F | °C
As of 4:54 PM on Thursday 23 Oct 2014 (Local Time) from KAVP Reporting Station
Overcast Overcast  
Wind Chill: 50°   Ceiling: 2100
Heat Index: 50°   Visibility: 10mi
Dew Point: 42°   Wind: 8mph
Humidity: 74%   Direction: 360°N
Pressure: 29.86"   Gusts: NA
Location:  41.28°N, 76.14°W
Report Text: KAVP 232054Z AUTO 36007KT 10SM OVC021 10/06 A2986 RMK AO2 SLP113 60003 T01000056 53004
Loading
Personal Weather Stations






























Interactive Weather Map
Tropical Storm Tracking
New forecast layout! Learn more

10-Day Weather Forecast

Advertisements
Track Severe Weather on mobile